06MA weather

The Barn Heliport
Pepperell, Massachusetts, United States

Public forecast

Using degrees Fahrenheit for public forecast. Weather courtesy of forecast.io.

Closest aviation weather report (METAR) to The Barn Heliport

Closest report is Boire Field, 6.9 nm (12.7 km) NE. Retrieved 2020/04/07 22:56 UTC (34 minutes ago):

KASH 072256Z 28005KT 10SM SCT100 14/M06 A2972 RMK AO2 SLP068 T01441056

Closest aviation forecast (TAF) to The Barn Heliport

Closest forecast is Manchester-Boston Regional Airport, 16.4 nm (30.4 km) NNE. Retrieved 2020/04/07 18:22 UTC (5 hours ago):

TAF KMHT 071720Z 0718/0818 32009G16KT P6SM BKN090 FM080000 VRB03KT P6SM BKN090 FM080700 VRB04KT P6SM VCSH OVC040 FM081100 03005KT P6SM BKN050